Terminal Aerodrome Forecast
Issued by NWS

Home | Current Version | Previous Version | Text Only | Print | Product List | Glossary On
Versions: 1 2 3 4 5 6 7 8 9 10 11 12 13 14 15
000
FTUS46 KSEW 302300
TAFCLM
TAF
KCLM 302320Z 3100/3124 30010KT P6SM SCT040 BKN070
     FM311000 VRB03KT P6SM BKN025 OVC045
     FM311700 09005KT P6SM SCT025 BKN050 BKN120=

USA.gov is the U.S. government's official web portal to all federal, state and local government web resources and services.